Terminal Aerodrome Forecast
Issued by NWS

Home | Current Version | Previous Version | Text Only | Print | Product List | Glossary On
Versions: 1 2 3 4 5 6 7 8 9 10 11 12 13 14 15 16 17 18 19 20 21 22 23
000
FTUS46 KMFR 270520
TAFOTH
TAF
KOTH 270520Z 2706/2806 36008KT 3SM BR OVC005
     FM270800 VRB03KT 1SM BR OVC003
     FM271700 33008KT P6SM BKN006
     FM271900 35018G30KT P6SM SCT010
     FM280300 36011KT P6SM OVC008
      AMD NOT SKED=

USA.gov is the U.S. government's official web portal to all federal, state and local government web resources and services.